Time;durP1;ratioP1;P1;durP2;ratioP2;P2;SDS_P1;SDS_P2;PMS_P1;PMS_P2;Temp;Humidity;BMP_temperature;BMP_pressure;BME280_temperature;BME280_humidity;BME280_pressure;Samples;Min_cycle;Max_cycle;Signal;HPM_P1;HPM_P2
2021/08/26 00:06:30;;;;;;;3.80;3.50;;;;;;;17.49;100.00;98619.31;1789038;80;21159;-69
2021/08/26 00:08:59;;;;;;;3.40;3.10;;;;;;;17.48;100.00;98617.58;1788101;80;21505;-68
2021/08/26 00:11:29;;;;;;;3.95;3.65;;;;;;;17.48;100.00;98622.05;1782411;79;21006;-68
2021/08/26 00:13:58;;;;;;;4.00;3.62;;;;;;;17.46;100.00;98616.78;1788492;79;21020;-68
2021/08/26 00:16:33;;;;;;;3.70;3.40;;;;;;;17.45;100.00;98619.05;1780727;79;21014;-68
2021/08/26 00:18:59;;;;;;;3.80;3.40;;;;;;;17.44;100.00;98621.78;1781947;79;21123;-68
2021/08/26 00:21:29;;;;;;;3.80;3.40;;;;;;;17.44;100.00;98621.31;1771844;79;21009;-68
2021/08/26 00:23:57;;;;;;;3.65;3.35;;;;;;;17.45;100.00;98615.52;1758982;80;21703;-68
2021/08/26 00:26:26;;;;;;;3.95;3.65;;;;;;;17.46;100.00;98612.78;1771090;79;20991;-68
2021/08/26 00:28:54;;;;;;;5.60;3.27;;;;;;;17.46;100.00;98608.78;1771146;79;21026;-68
2021/08/26 00:31:25;;;;;;;4.00;3.62;;;;;;;17.45;100.00;98612.38;1778997;79;21530;-68
2021/08/26 00:33:52;;;;;;;2.92;2.65;;;;;;;17.45;100.00;98609.72;1788762;80;20935;-68
2021/08/26 00:36:21;;;;;;;2.72;2.52;;;;;;;17.43;100.00;98603.58;1782032;79;20952;-68
2021/08/26 00:38:49;;;;;;;3.75;3.40;;;;;;;17.46;100.00;98609.25;1788896;80;20844;-68
2021/08/26 00:41:18;;;;;;;3.22;2.92;;;;;;;17.46;100.00;98605.25;1772280;80;21061;-68
2021/08/26 00:43:47;;;;;;;3.65;3.33;;;;;;;17.44;100.00;98598.65;1787721;80;21965;-68
2021/08/26 00:46:16;;;;;;;3.70;3.40;;;;;;;17.43;100.00;98598.25;1773808;80;20935;-68
2021/08/26 00:48:48;;;;;;;3.10;2.80;;;;;;;17.41;100.00;98597.91;1775171;80;21451;-69
2021/08/26 00:51:17;;;;;;;3.52;2.67;;;;;;;17.40;100.00;98598.37;1698039;84;21038;-67
2021/08/26 00:53:47;;;;;;;3.30;3.00;;;;;;;17.42;100.00;98591.64;1717101;82;20987;-66
2021/08/26 00:56:16;;;;;;;2.87;2.67;;;;;;;17.43;100.00;98589.38;1765643;80;21142;-67
2021/08/26 00:58:49;;;;;;;2.92;2.72;;;;;;;17.42;100.00;98587.19;1774880;80;20869;-66
2021/08/26 01:01:31;;;;;;;3.98;3.02;;;;;;;17.40;100.00;98576.19;1768656;80;20935;-67
2021/08/26 01:04:10;;;;;;;3.25;2.95;;;;;;;17.39;100.00;98573.98;1763165;80;20939;-66
2021/08/26 01:07:03;;;;;;;2.77;2.52;;;;;;;17.39;100.00;98565.12;1764815;80;21533;-66
2021/08/26 01:09:43;;;;;;;3.87;2.58;;;;;;;17.40;100.00;98573.52;1759978;80;21141;-66
2021/08/26 01:12:19;;;;;;;3.92;2.65;;;;;;;17.38;100.00;98568.25;1761121;80;20911;-66
2021/08/26 01:14:47;;;;;;;4.65;2.92;;;;;;;17.36;100.00;98570.11;1775056;80;20960;-67
2021/08/26 01:17:23;;;;;;;4.00;2.70;;;;;;;17.35;100.00;98568.84;1765824;79;21054;-66
2021/08/26 01:19:54;;;;;;;3.58;2.80;;;;;;;17.35;100.00;98567.05;1761733;79;20936;-66
2021/08/26 01:22:22;;;;;;;3.00;2.70;;;;;;;17.35;100.00;98568.84;1760275;80;21419;-66
2021/08/26 01:25:02;;;;;;;2.70;2.50;;;;;;;17.34;100.00;98566.65;1774866;80;20910;-67
2021/08/26 01:27:41;;;;;;;2.87;2.52;;;;;;;17.34;100.00;98571.98;1774032;80;21501;-66
2021/08/26 01:30:14;;;;;;;3.85;2.52;;;;;;;17.34;100.00;98567.11;1775093;80;21569;-66
2021/08/26 01:32:43;;;;;;;3.08;2.62;;;;;;;17.33;100.00;98569.38;1738933;81;21020;-66
2021/08/26 01:35:12;;;;;;;2.90;2.45;;;;;;;17.32;100.00;98572.52;1737831;82;21141;-66
2021/08/26 01:37:40;;;;;;;3.58;2.70;;;;;;;17.35;100.00;98568.84;1771790;79;21157;-64
2021/08/26 01:40:10;;;;;;;3.17;2.65;;;;;;;17.36;100.00;98568.78;1765492;79;20979;-64
2021/08/26 01:42:38;;;;;;;3.10;2.72;;;;;;;17.36;100.00;98567.45;1764136;79;21474;-67
2021/08/26 01:45:10;;;;;;;4.47;2.67;;;;;;;17.35;100.00;98568.84;1768974;79;20911;-66
2021/08/26 01:47:39;;;;;;;2.65;2.45;;;;;;;17.35;100.00;98576.37;1773616;79;21120;-67
2021/08/26 01:50:09;;;;;;;2.77;2.40;;;;;;;17.36;100.00;98574.11;1783287;79;21390;-67
2021/08/26 01:52:39;;;;;;;3.15;2.85;;;;;;;17.39;100.00;98575.31;1788288;79;20896;-66
2021/08/26 01:55:09;;;;;;;3.00;2.50;;;;;;;17.42;100.00;98576.98;1787627;80;20966;-66
2021/08/26 01:57:37;;;;;;;3.00;2.80;;;;;;;17.42;100.00;98579.65;1789142;80;21019;-66
2021/08/26 02:00:08;;;;;;;3.75;3.10;;;;;;;17.43;100.00;98576.05;1787807;80;21142;-66
2021/08/26 02:02:36;;;;;;;4.00;2.80;;;;;;;17.42;100.00;98574.31;1788809;80;20931;-66
2021/08/26 02:05:05;;;;;;;3.30;2.90;;;;;;;17.43;100.00;98576.05;1789006;80;21524;-63
2021/08/26 02:07:34;;;;;;;7.03;3.20;;;;;;;17.45;100.00;98568.39;1763041;80;21467;-65
2021/08/26 02:10:02;;;;;;;3.77;3.10;;;;;;;17.48;100.00;98560.25;1774656;79;21042;-66
2021/08/26 02:12:30;;;;;;;3.05;2.75;;;;;;;17.48;100.00;98556.72;1773718;79;21183;-67
2021/08/26 02:15:00;;;;;;;6.17;3.00;;;;;;;17.49;100.00;98559.78;1773687;79;21387;-66
2021/08/26 02:17:28;;;;;;;3.02;2.67;;;;;;;17.47;100.00;98568.31;1785425;79;21042;-66
2021/08/26 02:19:57;;;;;;;4.28;2.70;;;;;;;17.47;100.00;98540.33;1775768;79;21473;-66
2021/08/26 02:22:25;;;;;;;4.30;2.70;;;;;;;17.48;100.00;98550.05;1780775;79;20902;-67
2021/08/26 02:24:53;;;;;;;4.75;3.12;;;;;;;17.49;100.00;98550.45;1787536;80;21135;-66
2021/08/26 02:27:22;;;;;;;3.90;2.98;;;;;;;17.47;100.00;98538.98;1787483;80;21038;-66
2021/08/26 02:29:50;;;;;;;4.10;3.30;;;;;;;17.45;100.00;98532.86;1787680;80;21007;-66
2021/08/26 02:32:18;;;;;;;2.98;2.67;;;;;;;17.42;100.00;98527.19;1789055;80;21577;-66
2021/08/26 02:34:47;;;;;;;2.92;2.62;;;;;;;17.40;100.00;98520.19;1789133;80;21088;-66
2021/08/26 02:37:15;;;;;;;3.50;2.58;;;;;;;17.40;100.00;98518.39;1781254;79;21117;-66
2021/08/26 02:39:44;;;;;;;3.30;2.40;;;;;;;17.37;100.00;98510.53;1786476;79;20986;-66
2021/08/26 02:42:12;;;;;;;3.08;2.33;;;;;;;17.31;100.00;98514.80;1767148;80;20941;-66
2021/08/26 02:44:40;;;;;;;3.22;2.40;;;;;;;17.26;100.00;98510.13;1775638;79;21620;-66
2021/08/26 02:47:08;;;;;;;4.35;1.87;;;;;;;17.23;100.00;98512.94;1788971;79;21548;-66
2021/08/26 02:49:37;;;;;;;2.05;1.80;;;;;;;17.17;100.00;98502.53;1788699;79;21158;-66
2021/08/26 02:52:06;;;;;;;2.05;1.85;;;;;;;17.13;100.00;98504.47;1788780;80;21026;-66
2021/08/26 02:54:34;;;;;;;2.30;2.02;;;;;;;17.09;100.00;98507.33;1766951;80;21000;-67
2021/08/26 02:57:03;;;;;;;2.17;1.98;;;;;;;17.05;100.00;98501.73;1779968;80;21402;-66
2021/08/26 02:59:31;;;;;;;4.92;2.30;;;;;;;16.97;100.00;98496.69;1772508;79;21422;-66
2021/08/26 03:02:00;;;;;;;2.70;2.20;;;;;;;16.96;100.00;98510.95;1788874;79;21425;-67
2021/08/26 03:04:29;;;;;;;3.10;2.17;;;;;;;16.93;100.00;98515.07;1789195;79;20890;-66
2021/08/26 03:06:59;;;;;;;2.70;2.10;;;;;;;16.91;100.00;98515.13;1779488;80;21423;-66
2021/08/26 03:09:28;;;;;;;2.67;2.40;;;;;;;16.91;100.00;98520.92;1784716;80;21451;-66
2021/08/26 03:11:56;;;;;;;2.87;2.50;;;;;;;16.89;100.00;98514.33;1787711;79;20995;-66
2021/08/26 03:14:25;;;;;;;2.67;2.20;;;;;;;16.87;100.00;98515.33;1783575;80;21262;-66
2021/08/26 03:16:53;;;;;;;2.40;2.15;;;;;;;16.87;100.00;98515.33;1778278;80;21540;-66
2021/08/26 03:19:22;;;;;;;2.45;2.17;;;;;;;16.90;100.00;98517.39;1786816;80;21108;-66
2021/08/26 03:21:50;;;;;;;3.20;2.12;;;;;;;16.91;100.00;98519.59;1787613;79;22006;-66
2021/08/26 03:24:19;;;;;;;2.62;2.42;;;;;;;16.89;100.00;98518.33;1775377;79;21430;-66
2021/08/26 03:26:47;;;;;;;2.85;2.45;;;;;;;16.90;100.00;98516.06;1770986;79;21152;-66
2021/08/26 03:29:15;;;;;;;2.45;2.08;;;;;;;16.90;100.00;98517.39;1785634;79;20958;-66
2021/08/26 03:31:42;;;;;;;3.85;2.58;;;;;;;16.92;100.00;98522.20;1774280;79;21455;-66
2021/08/26 03:34:10;;;;;;;2.67;2.47;;;;;;;16.93;100.00;98523.93;1773235;79;20919;-65
2021/08/26 03:36:39;;;;;;;3.50;2.50;;;;;;;16.93;100.00;98522.59;1759125;79;21534;-65
2021/08/26 03:39:08;;;;;;;6.03;3.00;;;;;;;16.94;100.00;98518.14;1784926;80;22016;-66
2021/08/26 03:41:36;;;;;;;2.37;2.10;;;;;;;16.92;100.00;98516.87;1781134;79;20994;-67
2021/08/26 03:44:05;;;;;;;2.50;2.30;;;;;;;16.96;100.00;98518.94;1788950;80;21501;-68
2021/08/26 03:46:33;;;;;;;2.58;2.37;;;;;;;16.99;100.00;98526.80;1784258;80;21552;-62
2021/08/26 03:49:02;;;;;;;3.15;2.85;;;;;;;16.99;100.00;98522.34;1769063;80;21381;-62
2021/08/26 03:51:29;;;;;;;2.95;2.50;;;;;;;16.99;100.00;98520.14;1779744;80;21188;-62
2021/08/26 03:53:58;;;;;;;4.03;2.20;;;;;;;17.02;100.00;98527.14;1782099;80;21482;-63
2021/08/26 03:56:26;;;;;;;4.58;2.25;;;;;;;17.03;100.00;98528.88;1774347;80;21573;-64
2021/08/26 03:58:55;;;;;;;2.47;2.22;;;;;;;17.07;100.00;98520.72;1765902;80;21022;-64
2021/08/26 04:01:22;;;;;;;3.22;2.67;;;;;;;17.10;100.00;98524.58;1770553;80;20879;-63
2021/08/26 04:03:50;;;;;;;2.45;2.25;;;;;;;17.13;100.00;98528.45;1782114;80;21153;-62
2021/08/26 04:06:18;;;;;;;3.45;2.92;;;;;;;17.15;100.00;98527.05;1782494;80;21391;-62
2021/08/26 04:08:47;;;;;;;3.80;2.67;;;;;;;17.18;100.00;98523.79;1782528;80;20982;-70
2021/08/26 04:11:15;;;;;;;3.02;2.62;;;;;;;17.23;100.00;98525.80;1781854;79;20962;-62
2021/08/26 04:13:44;;;;;;;4.60;3.83;;;;;;;17.27;100.00;98526.53;1768342;79;21031;-63
2021/08/26 04:16:14;;;;;;;3.40;3.05;;;;;;;17.30;100.00;98519.73;1765357;80;21156;-62
2021/08/26 04:18:44;;;;;;;3.35;2.52;;;;;;;17.31;100.00;98522.33;1765342;80;20974;-62
2021/08/26 04:21:13;;;;;;;3.00;2.70;;;;;;;17.33;100.00;98519.59;1771342;79;21065;-61
2021/08/26 04:23:41;;;;;;;5.85;3.77;;;;;;;17.39;100.00;98522.45;1772383;79;20930;-62
2021/08/26 04:26:09;;;;;;;3.85;3.45;;;;;;;17.42;100.00;98519.66;1780268;80;20840;-61
2021/08/26 04:28:37;;;;;;;3.60;3.30;;;;;;;17.43;100.00;98524.92;1775799;80;21125;-61
2021/08/26 04:31:05;;;;;;;3.08;2.80;;;;;;;17.45;100.00;98518.19;1775463;80;20888;-64
2021/08/26 04:33:34;;;;;;;4.35;2.50;;;;;;;17.46;100.00;98516.79;1776563;80;20990;-61
2021/08/26 04:36:02;;;;;;;3.75;2.58;;;;;;;17.49;100.00;98524.66;1775947;80;21027;-70
2021/08/26 04:38:31;;;;;;;3.75;2.58;;;;;;;17.51;100.00;98514.83;1766140;80;20918;-64
2021/08/26 04:41:00;;;;;;;2.62;2.42;;;;;;;17.52;100.00;98512.55;1778390;79;21861;-64
2021/08/26 04:43:28;;;;;;;2.58;2.37;;;;;;;17.52;100.00;98515.69;1782496;80;20962;-60
2021/08/26 04:45:57;;;;;;;5.35;2.33;;;;;;;17.53;100.00;98515.63;1784291;79;21443;-63
2021/08/26 04:48:25;;;;;;;2.45;2.25;;;;;;;17.53;100.00;98511.62;1776457;79;21069;-64
2021/08/26 04:50:53;;;;;;;4.17;2.70;;;;;;;17.56;100.00;98508.81;1786844;80;21581;-62
2021/08/26 04:53:21;;;;;;;2.70;2.40;;;;;;;17.57;100.00;98507.02;1780621;79;21176;-62
2021/08/26 04:55:49;;;;;;;3.17;2.62;;;;;;;17.56;100.00;98509.28;1788180;79;20883;-67
2021/08/26 04:58:17;;;;;;;2.60;2.40;;;;;;;17.55;100.00;98517.75;1781193;79;20970;-65
2021/08/26 05:00:45;;;;;;;2.92;2.58;;;;;;;17.54;100.00;98509.35;1786646;79;21042;-64
2021/08/26 05:03:13;;;;;;;2.85;2.60;;;;;;;17.54;100.00;98513.82;1779809;79;20871;-63
2021/08/26 05:05:41;;;;;;;2.87;2.42;;;;;;;17.55;100.00;98511.09;1759792;79;21039;-66
2021/08/26 05:08:10;;;;;;;2.50;2.30;;;;;;;17.56;100.00;98507.48;1784084;79;20965;-66
2021/08/26 05:10:41;;;;;;;5.40;2.37;;;;;;;17.56;100.00;98504.81;1780841;79;20967;-66
2021/08/26 05:13:08;;;;;;;2.45;2.22;;;;;;;17.58;100.00;98500.75;1774146;80;20941;-65
2021/08/26 05:15:39;;;;;;;3.77;2.20;;;;;;;17.56;100.00;98508.81;1788835;80;20854;-65
2021/08/26 05:18:10;;;;;;;2.30;2.10;;;;;;;17.57;100.00;98513.22;1789318;80;21123;-65
2021/08/26 05:20:38;;;;;;;2.90;2.25;;;;;;;17.57;100.00;98515.88;1788796;80;21407;-65
2021/08/26 05:23:06;;;;;;;2.17;1.98;;;;;;;17.57;100.00;98509.69;1789382;80;21020;-64
2021/08/26 05:25:36;;;;;;;2.10;1.90;;;;;;;17.55;100.00;98512.41;1789066;80;20967;-66
2021/08/26 05:28:05;;;;;;;2.33;2.12;;;;;;;17.53;100.00;98509.42;1761865;80;21518;-67
2021/08/26 05:30:33;;;;;;;2.75;2.02;;;;;;;17.51;100.00;98508.16;1757740;80;21740;-66
2021/08/26 05:33:01;;;;;;;2.17;1.98;;;;;;;17.51;100.00;98518.82;1745194;80;20885;-67
2021/08/26 05:35:29;;;;;;;2.47;2.10;;;;;;;17.51;100.00;98516.16;1789065;80;21530;-66
2021/08/26 05:37:57;;;;;;;2.33;2.02;;;;;;;17.51;100.00;98513.95;1789416;80;21478;-67
2021/08/26 05:40:25;;;;;;;5.35;2.10;;;;;;;17.48;100.00;98516.72;1774949;80;20892;-65
2021/08/26 05:42:53;;;;;;;2.58;2.37;;;;;;;17.47;100.00;98525.66;1766078;80;21118;-66
2021/08/26 05:45:21;;;;;;;2.45;1.62;;;;;;;17.46;100.00;98522.59;1771343;80;21424;-66
2021/08/26 05:47:54;;;;;;;2.77;2.22;;;;;;;17.47;100.00;98521.66;1752636;80;20858;-65
2021/08/26 05:50:19;;;;;;;2.60;2.40;;;;;;;17.46;100.00;98520.79;1783767;80;20873;-65
2021/08/26 05:52:48;;;;;;;2.83;2.47;;;;;;;17.45;100.00;98524.39;1786688;80;20932;-66
2021/08/26 05:55:17;;;;;;;2.52;2.33;;;;;;;17.45;100.00;98519.52;1786639;80;21228;-66
2021/08/26 05:57:46;;;;;;;2.40;2.20;;;;;;;17.43;100.00;98524.06;1786548;80;21395;-67
2021/08/26 06:00:15;;;;;;;4.28;2.40;;;;;;;17.42;100.00;98524.99;1766296;80;20938;-66
2021/08/26 06:02:44;;;;;;;2.67;2.47;;;;;;;17.42;100.00;98531.19;1750933;82;20965;-66
2021/08/26 06:05:12;;;;;;;3.42;2.33;;;;;;;17.41;100.00;98522.80;1751213;82;21429;-66
2021/08/26 06:07:40;;;;;;;3.75;2.70;;;;;;;17.38;100.00;98520.27;1780134;80;21899;-67
2021/08/26 06:10:09;;;;;;;3.10;2.80;;;;;;;17.37;100.00;98529.19;1780660;80;20923;-67
2021/08/26 06:12:41;;;;;;;2.65;2.40;;;;;;;17.34;100.00;98521.33;1766705;80;21007;-67
2021/08/26 06:15:10;;;;;;;2.60;2.40;;;;;;;17.33;100.00;98520.92;1780184;80;21541;-65
2021/08/26 06:17:38;;;;;;;4.25;2.40;;;;;;;17.31;100.00;98526.33;1784848;80;20912;-66
2021/08/26 06:20:09;;;;;;;2.90;2.40;;;;;;;17.30;100.00;98525.92;1777253;80;21993;-67
2021/08/26 06:22:37;;;;;;;2.65;2.45;;;;;;;17.27;100.00;98534.05;1773929;80;20999;-67
2021/08/26 06:25:06;;;;;;;3.12;2.10;;;;;;;17.25;100.00;98531.92;1777346;80;21007;-67
2021/08/26 06:27:34;;;;;;;4.28;2.45;;;;;;;17.26;100.00;98539.45;1760308;80;21614;-67
2021/08/26 06:30:01;;;;;;;2.17;2.05;;;;;;;17.26;100.00;98532.79;1769713;80;20908;-66
2021/08/26 06:32:29;;;;;;;2.37;2.17;;;;;;;17.27;100.00;98531.39;1767132;80;21820;-66
2021/08/26 06:34:58;;;;;;;2.42;1.90;;;;;;;17.28;100.00;98537.59;1751431;80;21473;-67
2021/08/26 06:37:26;;;;;;;2.22;1.80;;;;;;;17.29;100.00;98537.98;1750899;82;20981;-66
2021/08/26 06:39:54;;;;;;;2.00;1.70;;;;;;;17.29;100.00;98530.86;1750948;82;21008;-68
2021/08/26 06:42:22;;;;;;;1.92;1.70;;;;;;;17.30;100.00;98535.72;1750870;82;20913;-66
2021/08/26 06:44:50;;;;;;;2.25;1.60;;;;;;;17.31;100.00;98533.45;1763722;80;21087;-67
2021/08/26 06:47:19;;;;;;;4.60;1.92;;;;;;;17.29;100.00;98537.52;1766184;80;21000;-68
2021/08/26 06:49:46;;;;;;;2.47;1.62;;;;;;;17.29;100.00;98534.86;1775297;80;20919;-66
2021/08/26 06:52:15;;;;;;;1.92;1.60;;;;;;;17.30;100.00;98531.72;1772792;80;20936;-66
2021/08/26 06:54:43;;;;;;;2.05;1.80;;;;;;;17.31;100.00;98528.99;1768085;80;20936;-66
2021/08/26 06:57:11;;;;;;;2.20;2.00;;;;;;;17.33;100.00;98527.59;1765728;80;21159;-66
2021/08/26 06:59:38;;;;;;;2.25;1.85;;;;;;;17.35;100.00;98524.39;1759981;80;21838;-66
2021/08/26 07:02:06;;;;;;;3.22;2.02;;;;;;;17.35;100.00;98516.86;1760011;80;20986;-66
2021/08/26 07:04:33;;;;;;;2.05;1.90;;;;;;;17.36;100.00;98519.47;1760032;80;21021;-67
2021/08/26 07:07:02;;;;;;;1.82;1.62;;;;;;;17.35;100.00;98519.53;1774352;80;20925;-66
2021/08/26 07:09:31;;;;;;;3.00;2.12;;;;;;;17.34;100.00;98516.00;1775360;80;21201;-66
2021/08/26 07:11:58;;;;;;;1.85;1.75;;;;;;;17.33;100.00;98518.73;1775213;80;20924;-68
2021/08/26 07:14:28;;;;;;;3.72;1.80;;;;;;;17.30;100.00;98528.59;1762953;80;20989;-66
2021/08/26 07:16:57;;;;;;;1.90;1.60;;;;;;;17.30;100.00;98537.05;1734031;81;20911;-67
2021/08/26 07:19:26;;;;;;;1.57;1.40;;;;;;;17.32;100.00;98539.19;1762255;80;21032;-66
2021/08/26 07:21:54;;;;;;;1.82;1.50;;;;;;;17.32;100.00;98543.19;1780972;80;21118;-66
2021/08/26 07:24:22;;;;;;;4.33;1.60;;;;;;;17.29;100.00;98541.52;1765694;80;20881;-66
2021/08/26 07:26:50;;;;;;;1.42;1.32;;;;;;;17.28;100.00;98540.25;1764198;80;20948;-65
2021/08/26 07:29:18;;;;;;;1.40;1.30;;;;;;;17.27;100.00;98542.52;1766134;80;20954;-65
2021/08/26 07:31:46;;;;;;;1.40;1.20;;;;;;;17.28;100.00;98552.25;1760121;80;21094;-66
2021/08/26 07:34:15;;;;;;;1.20;1.10;;;;;;;17.29;100.00;98545.98;1760015;80;21170;-66
2021/08/26 07:36:43;;;;;;;1.52;1.40;;;;;;;17.27;100.00;98549.19;1761318;80;20965;-67
2021/08/26 07:39:12;;;;;;;1.50;1.40;;;;;;;17.25;100.00;98553.25;1764670;80;21001;-66
2021/08/26 07:41:40;;;;;;;1.27;1.17;;;;;;;17.24;100.00;98537.32;1761929;80;21018;-67
2021/08/26 07:44:07;;;;;;;1.45;1.35;;;;;;;17.24;100.00;98537.32;1764792;80;20979;-67
2021/08/26 07:46:35;;;;;;;1.90;1.50;;;;;;;17.27;100.00;98542.52;1766427;80;21138;-67
2021/08/26 07:49:05;;;;;;;3.40;1.30;;;;;;;17.26;100.00;98545.65;1769957;80;21636;-67
2021/08/26 07:51:32;;;;;;;1.50;1.40;;;;;;;17.27;100.00;98550.52;1770065;80;21405;-67
2021/08/26 07:54:00;;;;;;;1.60;1.25;;;;;;;17.27;100.00;98554.52;1769905;80;21028;-66
2021/08/26 07:56:28;;;;;;;1.90;1.12;;;;;;;17.26;100.00;98539.45;1769994;80;21532;-66
2021/08/26 07:58:56;;;;;;;1.20;1.10;;;;;;;17.30;100.00;98543.72;1770700;80;21118;-67
2021/08/26 08:01:24;;;;;;;1.50;1.40;;;;;;;17.31;100.00;98542.78;1763736;80;20898;-67
2021/08/26 08:03:52;;;;;;;1.40;1.30;;;;;;;17.33;100.00;98545.39;1767301;80;20906;-67
2021/08/26 08:06:22;;;;;;;2.15;1.35;;;;;;;17.31;100.00;98539.66;1743330;80;20912;-66
2021/08/26 08:08:50;;;;;;;1.17;1.07;;;;;;;17.33;100.00;98534.26;1773511;80;20985;-67
2021/08/26 08:11:18;;;;;;;2.98;1.50;;;;;;;17.35;100.00;98536.86;1770045;80;21136;-68
2021/08/26 08:13:46;;;;;;;1.47;1.37;;;;;;;17.38;100.00;98543.39;1774442;80;21014;-67
2021/08/26 08:16:16;;;;;;;1.50;1.32;;;;;;;17.38;100.00;98538.06;1769888;80;21612;-68
2021/08/26 08:18:44;;;;;;;1.40;1.30;;;;;;;17.37;100.00;98538.98;1769156;80;21045;-66
2021/08/26 08:21:12;;;;;;;1.42;1.32;;;;;;;17.36;100.00;98542.12;1772889;80;20920;-67
2021/08/26 08:23:40;;;;;;;1.27;1.17;;;;;;;17.37;100.00;98531.86;1765215;80;21078;-67
2021/08/26 08:26:11;;;;;;;0.98;0.90;;;;;;;17.38;100.00;98546.92;1768762;80;21015;-67
2021/08/26 08:28:41;;;;;;;1.00;1.00;;;;;;;17.38;100.00;98545.59;1770827;80;28250;-66
2021/08/26 08:31:10;;;;;;;1.00;1.00;;;;;;;17.38;100.00;98546.92;1774360;80;21046;-66
2021/08/26 08:33:38;;;;;;;0.70;0.70;;;;;;;17.39;100.00;98539.33;1770268;80;21014;-67
2021/08/26 08:36:07;;;;;;;1.12;0.90;;;;;;;17.42;100.00;98539.19;1769958;80;21174;-67
2021/08/26 08:38:34;;;;;;;1.70;1.20;;;;;;;17.45;100.00;98536.39;1770173;80;20953;-67
2021/08/26 08:41:03;;;;;;;1.20;1.10;;;;;;;17.48;100.00;98536.72;1763576;80;20917;-66
2021/08/26 08:43:32;;;;;;;1.20;1.10;;;;;;;17.50;100.00;98540.19;1767321;80;20912;-67
2021/08/26 08:46:00;;;;;;;0.80;0.80;;;;;;;17.52;100.00;98537.89;1764874;80;21003;-66
2021/08/26 08:48:28;;;;;;;0.82;0.82;;;;;;;17.56;100.00;98543.95;1756285;80;21196;-66
2021/08/26 08:50:57;;;;;;;0.70;0.70;;;;;;;17.59;100.00;98534.02;1752908;80;20949;-66
2021/08/26 08:53:25;;;;;;;3.15;0.65;;;;;;;17.62;100.00;98533.02;1757952;80;20963;-67
2021/08/26 08:55:53;;;;;;;1.52;1.05;;;;;;;17.63;100.00;98531.61;1758763;80;20986;-67
2021/08/26 08:58:21;;;;;;;2.55;1.00;;;;;;;17.65;100.00;98534.67;1753268;80;21011;-67
2021/08/26 09:00:50;;;;;;;1.90;1.00;;;;;;;17.67;100.00;98527.04;1761137;80;21100;-67
2021/08/26 09:03:18;;;;;;;1.07;0.90;;;;;;;17.72;100.00;98522.36;1751313;80;20945;-65
2021/08/26 09:05:57;;;;;;;0.75;0.75;;;;;;;17.76;100.00;98515.95;1769624;80;20943;-66
2021/08/26 09:08:26;;;;;;;1.10;1.05;;;;;;;17.79;100.00;98516.28;1775641;80;20947;-66
2021/08/26 09:11:15;;;;;;;1.10;1.00;;;;;;;17.81;100.00;98521.08;1750332;80;20934;-66
2021/08/26 09:13:45;;;;;;;1.20;1.10;;;;;;;17.83;100.00;98520.08;1746998;80;21519;-66
2021/08/26 09:16:12;;;;;;;1.20;1.10;;;;;;;17.89;100.00;98522.46;1738527;82;20923;-66
2021/08/26 09:18:40;;;;;;;1.10;1.00;;;;;;;17.92;100.00;98520.13;1738840;82;21439;-65
2021/08/26 09:21:11;;;;;;;1.00;1.00;;;;;;;17.94;100.00;98516.91;1740808;82;20921;-66
2021/08/26 09:23:56;;;;;;;4.77;1.00;;;;;;;17.96;100.00;98513.70;1750791;82;20933;-66
2021/08/26 09:26:26;;;;;;;1.67;1.00;;;;;;;17.98;100.00;98517.20;1750291;82;21532;-65
2021/08/26 09:28:57;;;;;;;0.95;0.80;;;;;;;18.01;100.00;98514.39;1755924;80;20972;-65
2021/08/26 09:31:26;;;;;;;1.02;0.93;;;;;;;18.04;100.00;98516.05;1754846;80;21575;-65
2021/08/26 09:34:02;;;;;;;1.22;1.02;;;;;;;18.06;100.00;98515.05;1745063;82;21015;-65
2021/08/26 09:36:37;;;;;;;1.05;0.80;;;;;;;18.06;100.00;98518.19;1744822;82;20899;-65
2021/08/26 09:39:10;;;;;;;1.02;0.98;;;;;;;18.08;100.00;98514.50;1748908;80;21118;-66
2021/08/26 09:41:59;;;;;;;2.00;1.00;;;;;;;18.11;100.00;98510.83;1750145;80;21659;-66
2021/08/26 09:44:29;;;;;;;1.80;1.10;;;;;;;18.14;100.00;98510.69;1761285;80;20967;-66
2021/08/26 09:47:00;;;;;;;1.60;1.50;;;;;;;18.16;100.00;98515.02;1738296;82;21397;-66
2021/08/26 09:49:30;;;;;;;1.20;1.10;;;;;;;18.18;100.00;98516.27;1748584;80;20842;-66
2021/08/26 09:52:13;;;;;;;1.37;1.17;;;;;;;18.20;100.00;98517.06;1761053;80;21758;-67
2021/08/26 09:54:46;;;;;;;1.65;1.32;;;;;;;18.24;100.00;98507.98;1760947;80;21422;-67
2021/08/26 09:57:27;;;;;;;1.60;1.40;;;;;;;18.29;100.00;98515.77;1769424;80;21031;-66
2021/08/26 10:00:00;;;;;;;2.87;1.17;;;;;;;18.33;100.00;98512.02;1762302;80;21131;-67
2021/08/26 10:02:30;;;;;;;0.85;0.82;;;;;;;18.37;100.00;98512.27;1761632;80;21586;-66
2021/08/26 10:04:58;;;;;;;1.25;0.90;;;;;;;18.42;100.00;98510.23;1764657;80;21168;-65
2021/08/26 10:07:26;;;;;;;1.55;1.00;;;;;;;18.49;100.00;98508.56;1759633;80;21530;-66
2021/08/26 10:09:54;;;;;;;1.45;1.20;;;;;;;18.56;100.00;98509.13;1770084;80;21027;-66
2021/08/26 10:12:22;;;;;;;1.57;1.40;;;;;;;18.59;100.00;98502.30;1763254;80;20928;-66
2021/08/26 10:14:52;;;;;;;1.40;1.30;;;;;;;18.62;100.00;98506.20;1758183;80;20880;-66
2021/08/26 10:17:20;;;;;;;1.57;1.22;;;;;;;18.65;100.00;98511.39;1754559;80;21103;-65
2021/08/26 10:19:50;;;;;;;1.32;1.22;;;;;;;18.68;100.00;98507.23;1755214;80;20996;-65
2021/08/26 10:22:17;;;;;;;1.60;1.22;;;;;;;18.71;100.00;98511.09;1759537;80;20958;-66
2021/08/26 10:24:44;;;;;;;1.40;1.30;;;;;;;18.72;100.00;98510.62;1749929;80;20977;-66
2021/08/26 10:27:21;;;;;;;1.50;1.40;;;;;;;18.71;100.00;98508.42;1754743;80;21135;-67
2021/08/26 10:29:50;;;;;;;1.65;1.55;;;;;;;18.70;100.00;98508.49;1761570;80;21233;-68
2021/08/26 10:32:25;;;;;;;1.32;1.10;;;;;;;18.67;100.00;98506.84;1756461;80;21481;-68
2021/08/26 10:35:12;;;;;;;1.70;1.52;;;;;;;18.66;100.00;98507.78;1768441;80;21092;-68
2021/08/26 10:37:53;;;;;;;3.30;2.20;;;;;;;18.66;100.00;98512.25;1762722;80;20957;-69
2021/08/26 10:40:39;;;;;;;1.92;1.82;;;;;;;18.64;100.00;98506.98;1764373;80;20939;-69
2021/08/26 10:43:08;;;;;;;2.17;1.95;;;;;;;18.62;100.00;98512.01;1760604;80;21112;-68
2021/08/26 10:45:51;;;;;;;2.30;2.10;;;;;;;18.61;100.00;98511.11;1736490;80;21012;-69
2021/08/26 10:48:21;;;;;;;2.62;2.05;;;;;;;18.60;100.00;98516.53;1768882;80;21020;-69
2021/08/26 10:51:08;;;;;;;2.25;1.87;;;;;;;18.60;100.00;98508.05;1766142;80;21013;-69
2021/08/26 10:53:40;;;;;;;2.77;2.05;;;;;;;18.63;100.00;98513.27;1774217;80;20988;-67
2021/08/26 10:56:25;;;;;;;2.37;2.17;;;;;;;18.66;100.00;98511.78;1770929;80;21410;-66
2021/08/26 10:59:31;;;;;;;2.52;2.30;;;;;;;18.66;100.00;98505.58;1758707;80;20974;-67
2021/08/26 11:01:59;;;;;;;2.33;2.02;;;;;;;18.67;100.00;98510.84;1752424;80;21493;-65
2021/08/26 11:04:33;;;;;;;2.58;2.20;;;;;;;18.68;100.00;98509.04;1752542;80;20937;-66
2021/08/26 11:07:00;;;;;;;2.90;1.90;;;;;;;18.69;100.00;98516.11;1752669;80;21439;-67
2021/08/26 11:09:32;;;;;;;2.30;2.10;;;;;;;18.67;100.00;98516.19;1756808;80;21152;-67
2021/08/26 11:12:04;;;;;;;1.90;1.80;;;;;;;18.65;100.00;98514.06;1762867;80;21478;-66
2021/08/26 11:14:34;;;;;;;2.02;1.62;;;;;;;18.63;100.00;98515.94;1751551;81;21506;-67
2021/08/26 11:17:04;;;;;;;1.82;1.72;;;;;;;18.62;100.00;98513.34;1751554;81;20943;-66
2021/08/26 11:19:38;;;;;;;1.95;1.72;;;;;;;18.61;100.00;98512.91;1751452;82;20982;-66
2021/08/26 11:22:09;;;;;;;3.42;1.87;;;;;;;18.61;100.00;98513.78;1756387;80;21792;-66
2021/08/26 11:24:43;;;;;;;1.92;1.72;;;;;;;18.61;100.00;98511.11;1773988;80;20887;-66
2021/08/26 11:27:26;;;;;;;3.20;1.60;;;;;;;18.59;100.00;98511.66;1759924;81;20935;-66
2021/08/26 11:29:53;;;;;;;1.62;1.52;;;;;;;18.57;100.00;98509.53;1759740;81;20892;-66
2021/08/26 11:32:24;;;;;;;1.47;1.30;;;;;;;18.57;100.00;98510.86;1759804;81;20974;-66
2021/08/26 11:34:54;;;;;;;2.02;1.57;;;;;;;18.59;100.00;98513.46;1770490;80;21985;-66
2021/08/26 11:37:38;;;;;;;3.47;2.58;;;;;;;18.60;100.00;98511.19;1780072;80;21513;-66
2021/08/26 11:40:11;;;;;;;2.85;2.65;;;;;;;18.60;100.00;98510.72;1771831;80;20958;-66
2021/08/26 11:42:45;;;;;;;3.72;3.42;;;;;;;18.59;100.00;98499.64;1783325;80;20966;-69